sensor_id;sensor_type;location;lat;lon;timestamp;pressure;altitude;pressure_sealevel;temperature;humidity
79465;BME280;68932;47.410;8.232;2023-08-20T00:00:15;97105.61;;;23.84;58.92
79465;BME280;68932;47.410;8.232;2023-08-20T00:02:45;97105.82;;;23.84;59.04
79465;BME280;68932;47.410;8.232;2023-08-20T00:05:16;97102.61;;;23.84;58.96
79465;BME280;68932;47.410;8.232;2023-08-20T00:07:45;97099.66;;;23.84;59.03
79465;BME280;68932;47.410;8.232;2023-08-20T00:10:13;97097.15;;;23.82;59.18
79465;BME280;68932;47.410;8.232;2023-08-20T00:12:42;97094.28;;;23.81;59.18
79465;BME280;68932;47.410;8.232;2023-08-20T00:15:11;97093.66;;;23.78;59.32
79465;BME280;68932;47.410;8.232;2023-08-20T00:17:40;97094.70;;;23.77;59.39
79465;BME280;68932;47.410;8.232;2023-08-20T00:20:11;97096.97;;;23.76;59.24
79465;BME280;68932;47.410;8.232;2023-08-20T00:22:40;97099.73;;;23.75;59.46
79465;BME280;68932;47.410;8.232;2023-08-20T00:25:11;97101.79;;;23.74;59.58
79465;BME280;68932;47.410;8.232;2023-08-20T00:27:40;97101.10;;;23.72;59.82
79465;BME280;68932;47.410;8.232;2023-08-20T00:30:11;97106.11;;;23.71;59.64
79465;BME280;68932;47.410;8.232;2023-08-20T00:32:39;97103.60;;;23.69;59.49
79465;BME280;68932;47.410;8.232;2023-08-20T00:35:08;97104.66;;;23.68;59.83
79465;BME280;68932;47.410;8.232;2023-08-20T00:37:36;97108.64;;;23.65;60.00
79465;BME280;68932;47.410;8.232;2023-08-20T00:40:06;97113.52;;;23.63;60.18
79465;BME280;68932;47.410;8.232;2023-08-20T00:42:35;97112.48;;;23.60;60.08
79465;BME280;68932;47.410;8.232;2023-08-20T00:45:04;97112.30;;;23.57;60.24
79465;BME280;68932;47.410;8.232;2023-08-20T00:47:32;97113.80;;;23.52;60.49
79465;BME280;68932;47.410;8.232;2023-08-20T00:50:01;97117.55;;;23.49;60.54
79465;BME280;68932;47.410;8.232;2023-08-20T00:52:29;97118.12;;;23.46;60.49
79465;BME280;68932;47.410;8.232;2023-08-20T00:54:59;97120.52;;;23.44;60.64
79465;BME280;68932;47.410;8.232;2023-08-20T00:57:28;97120.80;;;23.42;60.79
79465;BME280;68932;47.410;8.232;2023-08-20T00:59:56;97119.37;;;23.40;60.80
79465;BME280;68932;47.410;8.232;2023-08-20T01:02:24;97118.96;;;23.39;60.74
79465;BME280;68932;47.410;8.232;2023-08-20T01:04:52;97116.69;;;23.39;60.87
79465;BME280;68932;47.410;8.232;2023-08-20T01:07:29;97111.86;;;23.39;60.83
79465;BME280;68932;47.410;8.232;2023-08-20T01:10:06;97109.83;;;23.38;61.00
79465;BME280;68932;47.410;8.232;2023-08-20T01:12:37;97113.05;;;23.36;60.93
79465;BME280;68932;47.410;8.232;2023-08-20T01:15:08;97111.98;;;23.34;60.97
79465;BME280;68932;47.410;8.232;2023-08-20T01:17:36;97110.38;;;23.33;61.21
79465;BME280;68932;47.410;8.232;2023-08-20T01:20:06;97113.29;;;23.31;61.12
79465;BME280;68932;47.410;8.232;2023-08-20T01:22:59;97114.30;;;23.28;61.44
79465;BME280;68932;47.410;8.232;2023-08-20T01:25:41;97117.09;;;23.24;61.53
79465;BME280;68932;47.410;8.232;2023-08-20T01:28:25;97117.27;;;23.21;61.56
79465;BME280;68932;47.410;8.232;2023-08-20T01:30:55;97121.27;;;23.19;61.52
79465;BME280;68932;47.410;8.232;2023-08-20T01:33:25;97120.05;;;23.18;61.52
79465;BME280;68932;47.410;8.232;2023-08-20T01:35:53;97121.83;;;23.16;61.46
79465;BME280;68932;47.410;8.232;2023-08-20T01:38:22;97116.81;;;23.15;61.76
79465;BME280;68932;47.410;8.232;2023-08-20T01:40:51;97126.21;;;23.13;61.57
79465;BME280;68932;47.410;8.232;2023-08-20T01:43:19;97122.85;;;23.11;61.71
79465;BME280;68932;47.410;8.232;2023-08-20T01:45:48;97124.42;;;23.09;61.65
79465;BME280;68932;47.410;8.232;2023-08-20T01:48:16;97126.16;;;23.07;61.80
79465;BME280;68932;47.410;8.232;2023-08-20T01:50:44;97126.64;;;23.07;61.88
79465;BME280;68932;47.410;8.232;2023-08-20T01:53:12;97132.04;;;23.06;62.01
79465;BME280;68932;47.410;8.232;2023-08-20T01:55:40;97132.73;;;23.05;61.99
79465;BME280;68932;47.410;8.232;2023-08-20T01:58:09;97134.04;;;23.04;62.03
79465;BME280;68932;47.410;8.232;2023-08-20T02:00:37;97130.21;;;23.03;62.21
79465;BME280;68932;47.410;8.232;2023-08-20T02:03:05;97128.92;;;23.02;62.13
79465;BME280;68932;47.410;8.232;2023-08-20T02:05:34;97128.60;;;23.02;62.17
79465;BME280;68932;47.410;8.232;2023-08-20T02:08:02;97125.34;;;23.00;62.17
79465;BME280;68932;47.410;8.232;2023-08-20T02:10:31;97125.69;;;22.99;62.37
79465;BME280;68932;47.410;8.232;2023-08-20T02:12:59;97128.52;;;22.98;62.23
79465;BME280;68932;47.410;8.232;2023-08-20T02:15:28;97130.70;;;22.96;62.29
79465;BME280;68932;47.410;8.232;2023-08-20T02:17:57;97139.05;;;22.95;62.39
79465;BME280;68932;47.410;8.232;2023-08-20T02:20:25;97141.59;;;22.94;62.63
79465;BME280;68932;47.410;8.232;2023-08-20T02:22:54;97140.27;;;22.92;62.65
79465;BME280;68932;47.410;8.232;2023-08-20T02:25:22;97141.89;;;22.90;62.45
79465;BME280;68932;47.410;8.232;2023-08-20T02:27:51;97140.18;;;22.89;62.39
79465;BME280;68932;47.410;8.232;2023-08-20T02:30:19;97139.01;;;22.89;62.35
79465;BME280;68932;47.410;8.232;2023-08-20T02:32:48;97135.13;;;22.88;62.31
79465;BME280;68932;47.410;8.232;2023-08-20T02:35:16;97137.77;;;22.87;62.53
79465;BME280;68932;47.410;8.232;2023-08-20T02:37:44;97134.41;;;22.85;62.68
79465;BME280;68932;47.410;8.232;2023-08-20T02:40:13;97140.92;;;22.83;62.86
79465;BME280;68932;47.410;8.232;2023-08-20T02:42:41;97146.17;;;22.81;62.91
79465;BME280;68932;47.410;8.232;2023-08-20T02:45:10;97150.14;;;22.78;62.76
79465;BME280;68932;47.410;8.232;2023-08-20T02:47:38;97155.64;;;22.76;62.88
79465;BME280;68932;47.410;8.232;2023-08-20T02:50:08;97156.12;;;22.73;62.88
79465;BME280;68932;47.410;8.232;2023-08-20T02:52:37;97159.25;;;22.71;63.00
79465;BME280;68932;47.410;8.232;2023-08-20T02:55:06;97164.08;;;22.67;63.17
79465;BME280;68932;47.410;8.232;2023-08-20T02:57:34;97165.41;;;22.64;63.36
79465;BME280;68932;47.410;8.232;2023-08-20T03:00:03;97164.08;;;22.60;63.38
79465;BME280;68932;47.410;8.232;2023-08-20T03:02:32;97162.98;;;22.57;63.41
79465;BME280;68932;47.410;8.232;2023-08-20T03:05:00;97160.27;;;22.54;63.59
79465;BME280;68932;47.410;8.232;2023-08-20T03:07:29;97161.39;;;22.52;63.60
79465;BME280;68932;47.410;8.232;2023-08-20T03:09:57;97164.67;;;22.50;63.53
79465;BME280;68932;47.410;8.232;2023-08-20T03:12:25;97164.48;;;22.48;63.77
79465;BME280;68932;47.410;8.232;2023-08-20T03:14:53;97160.56;;;22.46;63.99
79465;BME280;68932;47.410;8.232;2023-08-20T03:17:21;97161.58;;;22.46;63.87
79465;BME280;68932;47.410;8.232;2023-08-20T03:19:57;97167.84;;;22.44;63.97
79465;BME280;68932;47.410;8.232;2023-08-20T03:22:26;97173.14;;;22.43;64.03
79465;BME280;68932;47.410;8.232;2023-08-20T03:24:55;97174.91;;;22.40;63.98
79465;BME280;68932;47.410;8.232;2023-08-20T03:27:23;97175.05;;;22.37;64.26
79465;BME280;68932;47.410;8.232;2023-08-20T03:29:53;97172.48;;;22.32;64.42
79465;BME280;68932;47.410;8.232;2023-08-20T03:32:21;97171.57;;;22.31;64.70
79465;BME280;68932;47.410;8.232;2023-08-20T03:34:49;97175.39;;;22.30;64.66
79465;BME280;68932;47.410;8.232;2023-08-20T03:37:18;97172.02;;;22.28;64.73
79465;BME280;68932;47.410;8.232;2023-08-20T03:39:46;97178.23;;;22.27;64.92
79465;BME280;68932;47.410;8.232;2023-08-20T03:42:14;97177.80;;;22.24;65.06
79465;BME280;68932;47.410;8.232;2023-08-20T03:44:42;97174.16;;;22.24;65.24
79465;BME280;68932;47.410;8.232;2023-08-20T03:47:10;97169.31;;;22.22;65.60
79465;BME280;68932;47.410;8.232;2023-08-20T03:49:39;97164.83;;;22.20;65.84
79465;BME280;68932;47.410;8.232;2023-08-20T03:52:09;97163.52;;;22.19;65.84
79465;BME280;68932;47.410;8.232;2023-08-20T03:54:37;97167.70;;;22.17;65.98
79465;BME280;68932;47.410;8.232;2023-08-20T03:57:05;97167.55;;;22.13;66.02
79465;BME280;68932;47.410;8.232;2023-08-20T03:59:34;97172.08;;;22.11;66.17
79465;BME280;68932;47.410;8.232;2023-08-20T04:02:02;97174.86;;;22.09;66.41
79465;BME280;68932;47.410;8.232;2023-08-20T04:04:31;97173.26;;;22.07;66.38
79465;BME280;68932;47.410;8.232;2023-08-20T04:06:59;97169.50;;;22.06;66.34
79465;BME280;68932;47.410;8.232;2023-08-20T04:09:27;97170.88;;;22.04;66.25
79465;BME280;68932;47.410;8.232;2023-08-20T04:11:55;97171.48;;;22.04;66.39
79465;BME280;68932;47.410;8.232;2023-08-20T04:14:24;97172.08;;;22.02;66.69
79465;BME280;68932;47.410;8.232;2023-08-20T04:16:52;97170.80;;;22.00;66.52
79465;BME280;68932;47.410;8.232;2023-08-20T04:19:21;97172.78;;;21.99;66.50
79465;BME280;68932;47.410;8.232;2023-08-20T04:21:49;97178.21;;;21.98;66.33
79465;BME280;68932;47.410;8.232;2023-08-20T04:24:17;97174.49;;;21.98;66.44
79465;BME280;68932;47.410;8.232;2023-08-20T04:26:45;97177.52;;;21.98;66.44
79465;BME280;68932;47.410;8.232;2023-08-20T04:29:14;97166.09;;;21.96;66.46
79465;BME280;68932;47.410;8.232;2023-08-20T04:31:42;97163.09;;;21.96;66.30
79465;BME280;68932;47.410;8.232;2023-08-20T04:34:10;97154.15;;;21.96;66.43
79465;BME280;68932;47.410;8.232;2023-08-20T04:36:38;97153.91;;;21.97;66.51
79465;BME280;68932;47.410;8.232;2023-08-20T04:39:06;97158.90;;;21.97;66.76
79465;BME280;68932;47.410;8.232;2023-08-20T04:41:35;97166.34;;;21.96;66.76
79465;BME280;68932;47.410;8.232;2023-08-20T04:44:03;97176.77;;;21.94;66.84
79465;BME280;68932;47.410;8.232;2023-08-20T04:46:32;97181.13;;;21.94;66.83
79465;BME280;68932;47.410;8.232;2023-08-20T04:49:00;97184.83;;;21.94;66.96
79465;BME280;68932;47.410;8.232;2023-08-20T04:51:28;97183.77;;;21.94;66.91
79465;BME280;68932;47.410;8.232;2023-08-20T04:53:56;97184.92;;;21.95;67.11
79465;BME280;68932;47.410;8.232;2023-08-20T04:56:25;97191.23;;;21.96;66.99
79465;BME280;68932;47.410;8.232;2023-08-20T04:58:53;97194.52;;;21.98;67.05
79465;BME280;68932;47.410;8.232;2023-08-20T05:01:21;97195.23;;;21.99;67.06
79465;BME280;68932;47.410;8.232;2023-08-20T05:03:49;97192.06;;;21.98;67.08
79465;BME280;68932;47.410;8.232;2023-08-20T05:06:17;97197.02;;;21.99;67.13
79465;BME280;68932;47.410;8.232;2023-08-20T05:08:46;97195.88;;;22.00;67.23
79465;BME280;68932;47.410;8.232;2023-08-20T05:11:14;97204.34;;;22.02;67.16
79465;BME280;68932;47.410;8.232;2023-08-20T05:13:44;97208.59;;;22.01;67.16
79465;BME280;68932;47.410;8.232;2023-08-20T05:16:12;97209.63;;;22.03;67.06
79465;BME280;68932;47.410;8.232;2023-08-20T05:18:40;97213.35;;;22.08;67.13
79465;BME280;68932;47.410;8.232;2023-08-20T05:21:08;97211.38;;;22.15;67.29
79465;BME280;68932;47.410;8.232;2023-08-20T05:23:37;97209.50;;;22.22;67.11
79465;BME280;68932;47.410;8.232;2023-08-20T05:26:05;97212.61;;;22.30;67.26
79465;BME280;68932;47.410;8.232;2023-08-20T05:28:33;97218.55;;;22.39;67.46
79465;BME280;68932;47.410;8.232;2023-08-20T05:31:01;97223.14;;;22.45;67.69
79465;BME280;68932;47.410;8.232;2023-08-20T05:33:29;97224.63;;;22.50;67.63
79465;BME280;68932;47.410;8.232;2023-08-20T05:35:58;97225.41;;;22.54;67.50
79465;BME280;68932;47.410;8.232;2023-08-20T05:38:27;97224.69;;;22.55;67.41
79465;BME280;68932;47.410;8.232;2023-08-20T05:40:55;97222.64;;;22.53;67.61
79465;BME280;68932;47.410;8.232;2023-08-20T05:43:23;97223.52;;;22.55;67.62
79465;BME280;68932;47.410;8.232;2023-08-20T05:45:52;97221.69;;;22.57;67.82
79465;BME280;68932;47.410;8.232;2023-08-20T05:48:20;97222.27;;;22.60;67.78
79465;BME280;68932;47.410;8.232;2023-08-20T05:50:48;97220.88;;;22.63;67.60
79465;BME280;68932;47.410;8.232;2023-08-20T05:53:16;97222.35;;;22.66;67.63
79465;BME280;68932;47.410;8.232;2023-08-20T05:55:45;97226.98;;;22.69;67.48
79465;BME280;68932;47.410;8.232;2023-08-20T05:58:13;97229.54;;;22.72;67.42
79465;BME280;68932;47.410;8.232;2023-08-20T06:00:41;97238.23;;;22.78;67.28
79465;BME280;68932;47.410;8.232;2023-08-20T06:03:09;97236.98;;;22.82;67.25
79465;BME280;68932;47.410;8.232;2023-08-20T06:05:38;97235.47;;;22.86;67.06
79465;BME280;68932;47.410;8.232;2023-08-20T06:08:07;97229.48;;;22.92;67.02
79465;BME280;68932;47.410;8.232;2023-08-20T06:10:35;97227.66;;;23.00;66.96
79465;BME280;68932;47.410;8.232;2023-08-20T06:13:03;97229.96;;;23.08;67.04
79465;BME280;68932;47.410;8.232;2023-08-20T06:15:31;97232.77;;;23.19;66.64
79465;BME280;68932;47.410;8.232;2023-08-20T06:18:00;97240.27;;;23.28;66.14
79465;BME280;68932;47.410;8.232;2023-08-20T06:20:28;97244.80;;;23.34;65.39
79465;BME280;68932;47.410;8.232;2023-08-20T06:22:56;97250.50;;;23.34;65.09
79465;BME280;68932;47.410;8.232;2023-08-20T06:25:24;97252.63;;;23.32;65.18
79465;BME280;68932;47.410;8.232;2023-08-20T06:27:53;97250.61;;;23.33;65.04
79465;BME280;68932;47.410;8.232;2023-08-20T06:30:21;97247.48;;;23.34;64.94
79465;BME280;68932;47.410;8.232;2023-08-20T06:32:49;97248.00;;;23.32;64.99
79465;BME280;68932;47.410;8.232;2023-08-20T06:35:18;97246.55;;;23.34;65.09
79465;BME280;68932;47.410;8.232;2023-08-20T06:37:46;97242.98;;;23.40;64.89
79465;BME280;68932;47.410;8.232;2023-08-20T06:40:14;97241.61;;;23.51;64.89
79465;BME280;68932;47.410;8.232;2023-08-20T06:42:43;97241.61;;;23.62;64.94
79465;BME280;68932;47.410;8.232;2023-08-20T06:45:11;97240.85;;;23.71;65.00
79465;BME280;68932;47.410;8.232;2023-08-20T06:47:40;97243.61;;;23.79;64.66
79465;BME280;68932;47.410;8.232;2023-08-20T06:50:10;97247.29;;;23.81;64.13
79465;BME280;68932;47.410;8.232;2023-08-20T06:52:38;97246.70;;;23.84;64.24
79465;BME280;68932;47.410;8.232;2023-08-20T06:55:08;97244.79;;;23.88;63.78
79465;BME280;68932;47.410;8.232;2023-08-20T06:57:36;97244.77;;;23.96;63.71
79465;BME280;68932;47.410;8.232;2023-08-20T07:00:06;97244.45;;;24.04;63.41
79465;BME280;68932;47.410;8.232;2023-08-20T07:02:35;97246.98;;;24.10;63.26
79465;BME280;68932;47.410;8.232;2023-08-20T07:05:03;97247.91;;;24.16;63.14
79465;BME280;68932;47.410;8.232;2023-08-20T07:07:31;97250.19;;;24.18;63.06
79465;BME280;68932;47.410;8.232;2023-08-20T07:09:59;97251.37;;;24.24;62.95
79465;BME280;68932;47.410;8.232;2023-08-20T07:12:28;97255.05;;;24.32;63.01
79465;BME280;68932;47.410;8.232;2023-08-20T07:14:56;97258.70;;;24.40;62.61
79465;BME280;68932;47.410;8.232;2023-08-20T07:17:24;97260.71;;;24.44;62.25
79465;BME280;68932;47.410;8.232;2023-08-20T07:19:52;97257.69;;;24.45;61.82
79465;BME280;68932;47.410;8.232;2023-08-20T07:22:21;97259.09;;;24.46;61.69
79465;BME280;68932;47.410;8.232;2023-08-20T07:24:49;97261.23;;;24.44;61.73
79465;BME280;68932;47.410;8.232;2023-08-20T07:27:17;97263.61;;;24.47;61.64
79465;BME280;68932;47.410;8.232;2023-08-20T07:29:45;97263.70;;;24.51;61.79
79465;BME280;68932;47.410;8.232;2023-08-20T07:32:14;97264.08;;;24.54;61.44
79465;BME280;68932;47.410;8.232;2023-08-20T07:34:42;97262.48;;;24.62;61.69
79465;BME280;68932;47.410;8.232;2023-08-20T07:37:10;97263.20;;;24.71;61.44
79465;BME280;68932;47.410;8.232;2023-08-20T07:39:38;97262.40;;;24.81;61.97
79465;BME280;68932;47.410;8.232;2023-08-20T07:42:07;97265.86;;;24.91;61.07
79465;BME280;68932;47.410;8.232;2023-08-20T07:44:36;97267.38;;;25.02;61.11
79465;BME280;68932;47.410;8.232;2023-08-20T07:47:04;97266.37;;;25.12;60.55
79465;BME280;68932;47.410;8.232;2023-08-20T07:49:33;97268.14;;;25.23;60.76
79465;BME280;68932;47.410;8.232;2023-08-20T07:52:01;97261.30;;;25.34;60.72
79465;BME280;68932;47.410;8.232;2023-08-20T07:54:29;97263.95;;;25.44;60.20
79465;BME280;68932;47.410;8.232;2023-08-20T07:56:57;97264.35;;;25.57;60.17
79465;BME280;68932;47.410;8.232;2023-08-20T07:59:26;97262.94;;;25.70;60.03
79465;BME280;68932;47.410;8.232;2023-08-20T08:01:54;97264.23;;;25.83;59.64
79465;BME280;68932;47.410;8.232;2023-08-20T08:04:22;97261.73;;;25.95;58.94
79465;BME280;68932;47.410;8.232;2023-08-20T08:06:50;97262.45;;;26.03;58.76
79465;BME280;68932;47.410;8.232;2023-08-20T08:09:25;97260.23;;;26.09;58.33
79465;BME280;68932;47.410;8.232;2023-08-20T08:11:54;97256.16;;;26.14;58.51
79465;BME280;68932;47.410;8.232;2023-08-20T08:14:22;97258.37;;;26.14;58.18
79465;BME280;68932;47.410;8.232;2023-08-20T08:16:51;97263.19;;;26.19;58.30
79465;BME280;68932;47.410;8.232;2023-08-20T08:19:19;97261.94;;;26.27;57.99
79465;BME280;68932;47.410;8.232;2023-08-20T08:21:49;97264.73;;;26.34;57.43
79465;BME280;68932;47.410;8.232;2023-08-20T08:24:17;97265.34;;;26.34;57.25
79465;BME280;68932;47.410;8.232;2023-08-20T08:26:45;97266.50;;;26.33;57.45
79465;BME280;68932;47.410;8.232;2023-08-20T08:29:13;97271.84;;;26.30;56.76
79465;BME280;68932;47.410;8.232;2023-08-20T08:31:41;97271.10;;;26.23;56.61
79465;BME280;68932;47.410;8.232;2023-08-20T08:34:10;97272.06;;;26.15;56.25
79465;BME280;68932;47.410;8.232;2023-08-20T08:36:38;97272.13;;;26.17;56.40
79465;BME280;68932;47.410;8.232;2023-08-20T08:39:06;97271.02;;;26.20;56.64
79465;BME280;68932;47.410;8.232;2023-08-20T08:41:38;97271.11;;;26.24;56.77
79465;BME280;68932;47.410;8.232;2023-08-20T08:44:08;97275.55;;;26.29;56.78
79465;BME280;68932;47.410;8.232;2023-08-20T08:46:39;97281.38;;;26.36;57.02
79465;BME280;68932;47.410;8.232;2023-08-20T08:49:08;97276.94;;;26.37;56.13
79465;BME280;68932;47.410;8.232;2023-08-20T08:51:37;97275.92;;;26.32;56.07
79465;BME280;68932;47.410;8.232;2023-08-20T08:54:07;97277.75;;;26.35;56.58
79465;BME280;68932;47.410;8.232;2023-08-20T08:56:35;97276.05;;;26.38;56.04
79465;BME280;68932;47.410;8.232;2023-08-20T08:59:04;97276.91;;;26.43;57.00
79465;BME280;68932;47.410;8.232;2023-08-20T09:01:32;97280.40;;;26.48;57.06
79465;BME280;68932;47.410;8.232;2023-08-20T09:04:01;97284.52;;;26.54;56.42
79465;BME280;68932;47.410;8.232;2023-08-20T09:06:45;97284.09;;;26.59;56.01
79465;BME280;68932;47.410;8.232;2023-08-20T09:09:14;97280.10;;;26.62;55.42
79465;BME280;68932;47.410;8.232;2023-08-20T09:11:42;97278.41;;;26.64;55.24
79465;BME280;68932;47.410;8.232;2023-08-20T09:14:22;97274.66;;;26.66;55.18
79465;BME280;68932;47.410;8.232;2023-08-20T09:16:55;97276.39;;;26.71;55.06
79465;BME280;68932;47.410;8.232;2023-08-20T09:19:24;97274.84;;;26.76;54.61
79465;BME280;68932;47.410;8.232;2023-08-20T09:21:52;97278.95;;;26.80;54.59
79465;BME280;68932;47.410;8.232;2023-08-20T09:24:32;97274.63;;;26.86;54.95
79465;BME280;68932;47.410;8.232;2023-08-20T09:27:01;97276.35;;;26.94;55.40
79465;BME280;68932;47.410;8.232;2023-08-20T09:29:33;97273.77;;;26.99;54.66
79465;BME280;68932;47.410;8.232;2023-08-20T09:32:05;97275.50;;;27.05;54.42
79465;BME280;68932;47.410;8.232;2023-08-20T09:34:40;97272.92;;;27.09;54.30
79465;BME280;68932;47.410;8.232;2023-08-20T09:37:11;97277.06;;;27.17;54.72
79465;BME280;68932;47.410;8.232;2023-08-20T09:39:40;97279.23;;;27.23;54.03
79465;BME280;68932;47.410;8.232;2023-08-20T09:42:10;97275.50;;;27.27;53.46
79465;BME280;68932;47.410;8.232;2023-08-20T09:44:40;97278.92;;;27.34;54.12
79465;BME280;68932;47.410;8.232;2023-08-20T09:47:09;97277.48;;;27.42;54.28
79465;BME280;68932;47.410;8.232;2023-08-20T09:49:40;97277.05;;;27.50;53.55
79465;BME280;68932;47.410;8.232;2023-08-20T09:52:10;97275.17;;;27.58;53.47
79465;BME280;68932;47.410;8.232;2023-08-20T09:54:49;97274.66;;;27.65;53.24
79465;BME280;68932;47.410;8.232;2023-08-20T09:57:26;97271.34;;;27.74;53.21
79465;BME280;68932;47.410;8.232;2023-08-20T09:59:55;97276.31;;;27.83;53.56
79465;BME280;68932;47.410;8.232;2023-08-20T10:02:24;97277.31;;;27.92;54.13
79465;BME280;68932;47.410;8.232;2023-08-20T10:04:53;97271.44;;;28.01;54.21
79465;BME280;68932;47.410;8.232;2023-08-20T10:07:22;97271.41;;;28.09;53.94
79465;BME280;68932;47.410;8.232;2023-08-20T10:09:51;97275.30;;;28.18;53.30
79465;BME280;68932;47.410;8.232;2023-08-20T10:12:20;97272.35;;;28.25;52.60
79465;BME280;68932;47.410;8.232;2023-08-20T10:14:49;97271.77;;;28.31;51.80
79465;BME280;68932;47.410;8.232;2023-08-20T10:17:19;97268.83;;;28.36;51.25
79465;BME280;68932;47.410;8.232;2023-08-20T10:19:57;97272.08;;;28.40;51.34
79465;BME280;68932;47.410;8.232;2023-08-20T10:22:25;97273.29;;;28.45;51.55
79465;BME280;68932;47.410;8.232;2023-08-20T10:24:59;97270.95;;;28.52;50.84
79465;BME280;68932;47.410;8.232;2023-08-20T10:27:30;97273.23;;;28.56;50.27
79465;BME280;68932;47.410;8.232;2023-08-20T10:30:00;97276.48;;;28.59;50.18
79465;BME280;68932;47.410;8.232;2023-08-20T10:32:49;97271.10;;;28.64;50.90
79465;BME280;68932;47.410;8.232;2023-08-20T10:35:20;97272.06;;;28.72;50.19
79465;BME280;68932;47.410;8.232;2023-08-20T10:38:04;97266.56;;;28.78;50.33
79465;BME280;68932;47.410;8.232;2023-08-20T10:40:51;97267.35;;;28.84;49.61
79465;BME280;68932;47.410;8.232;2023-08-20T10:43:33;97264.17;;;28.90;49.75
79465;BME280;68932;47.410;8.232;2023-08-20T10:46:16;97259.71;;;28.96;49.56
79465;BME280;68932;47.410;8.232;2023-08-20T10:48:47;97257.90;;;29.02;49.07
79465;BME280;68932;47.410;8.232;2023-08-20T10:51:17;97258.97;;;29.05;47.85
79465;BME280;68932;47.410;8.232;2023-08-20T10:54:02;97259.77;;;29.10;48.15
79465;BME280;68932;47.410;8.232;2023-08-20T10:56:42;97257.77;;;29.18;48.48
79465;BME280;68932;47.410;8.232;2023-08-20T10:59:13;97257.63;;;29.26;48.57
79465;BME280;68932;47.410;8.232;2023-08-20T11:01:44;97257.55;;;29.32;48.25
79465;BME280;68932;47.410;8.232;2023-08-20T11:04:14;97258.09;;;29.37;47.99
79465;BME280;68932;47.410;8.232;2023-08-20T11:06:43;97250.56;;;29.41;48.04
79465;BME280;68932;47.410;8.232;2023-08-20T11:09:12;97252.00;;;29.48;48.35
79465;BME280;68932;47.410;8.232;2023-08-20T11:11:40;97248.92;;;29.54;48.28
79465;BME280;68932;47.410;8.232;2023-08-20T11:14:11;97245.91;;;29.58;47.77
79465;BME280;68932;47.410;8.232;2023-08-20T11:16:40;97246.75;;;29.65;46.67
79465;BME280;68932;47.410;8.232;2023-08-20T11:19:08;97241.45;;;29.71;46.31
79465;BME280;68932;47.410;8.232;2023-08-20T11:21:37;97238.77;;;29.77;46.38
79465;BME280;68932;47.410;8.232;2023-08-20T11:24:07;97239.59;;;29.85;47.33
79465;BME280;68932;47.410;8.232;2023-08-20T11:26:38;97239.59;;;29.95;47.52
79465;BME280;68932;47.410;8.232;2023-08-20T11:29:08;97242.52;;;30.03;46.40
79465;BME280;68932;47.410;8.232;2023-08-20T11:31:38;97240.70;;;30.12;47.47
79465;BME280;68932;47.410;8.232;2023-08-20T11:34:07;97240.58;;;30.20;46.75
79465;BME280;68932;47.410;8.232;2023-08-20T11:36:37;97236.39;;;30.30;46.37
79465;BME280;68932;47.410;8.232;2023-08-20T11:39:07;97235.81;;;30.36;45.67
79465;BME280;68932;47.410;8.232;2023-08-20T11:41:37;97232.67;;;30.43;45.16
79465;BME280;68932;47.410;8.232;2023-08-20T11:44:07;97230.91;;;30.49;44.41
79465;BME280;68932;47.410;8.232;2023-08-20T11:46:43;97229.34;;;30.56;44.25
79465;BME280;68932;47.410;8.232;2023-08-20T11:49:12;97229.80;;;30.61;43.57
79465;BME280;68932;47.410;8.232;2023-08-20T11:51:42;97227.77;;;30.67;43.34
79465;BME280;68932;47.410;8.232;2023-08-20T11:54:12;97228.05;;;30.74;44.61
79465;BME280;68932;47.410;8.232;2023-08-20T11:56:45;97221.43;;;30.82;44.56
79465;BME280;68932;47.410;8.232;2023-08-20T11:59:15;97216.48;;;30.90;43.91
79465;BME280;68932;47.410;8.232;2023-08-20T12:01:47;97216.38;;;30.97;44.11
79465;BME280;68932;47.410;8.232;2023-08-20T12:04:17;97215.58;;;31.05;43.42
79465;BME280;68932;47.410;8.232;2023-08-20T12:06:52;97208.29;;;31.10;42.13
79465;BME280;68932;47.410;8.232;2023-08-20T12:09:27;97205.52;;;31.18;43.01
79465;BME280;68932;47.410;8.232;2023-08-20T12:11:56;97205.89;;;31.25;43.52
79465;BME280;68932;47.410;8.232;2023-08-20T12:14:24;97205.11;;;31.32;43.87
79465;BME280;68932;47.410;8.232;2023-08-20T12:16:55;97205.19;;;31.38;44.05
79465;BME280;68932;47.410;8.232;2023-08-20T12:19:23;97203.73;;;31.46;43.64
79465;BME280;68932;47.410;8.232;2023-08-20T12:21:52;97205.10;;;31.54;42.97
79465;BME280;68932;47.410;8.232;2023-08-20T12:24:20;97205.17;;;31.58;41.65
79465;BME280;68932;47.410;8.232;2023-08-20T12:26:49;97201.30;;;31.63;41.44
79465;BME280;68932;47.410;8.232;2023-08-20T12:29:17;97196.94;;;31.70;41.62
79465;BME280;68932;47.410;8.232;2023-08-20T12:31:45;97192.95;;;31.74;41.08
79465;BME280;68932;47.410;8.232;2023-08-20T12:34:14;97194.95;;;31.80;41.02
79465;BME280;68932;47.410;8.232;2023-08-20T12:36:42;97191.16;;;31.85;40.40
79465;BME280;68932;47.410;8.232;2023-08-20T12:39:10;97187.05;;;31.89;40.87
79465;BME280;68932;47.410;8.232;2023-08-20T12:41:38;97187.64;;;31.94;41.56
79465;BME280;68932;47.410;8.232;2023-08-20T12:44:09;97183.64;;;32.00;42.16
79465;BME280;68932;47.410;8.232;2023-08-20T12:46:37;97178.91;;;32.07;42.21
79465;BME280;68932;47.410;8.232;2023-08-20T12:49:06;97180.48;;;32.15;41.80
79465;BME280;68932;47.410;8.232;2023-08-20T12:51:34;97180.98;;;32.20;40.64
79465;BME280;68932;47.410;8.232;2023-08-20T12:54:02;97175.33;;;32.25;40.32
79465;BME280;68932;47.410;8.232;2023-08-20T12:56:31;97175.70;;;32.31;40.61
79465;BME280;68932;47.410;8.232;2023-08-20T12:58:59;97173.43;;;32.37;39.77
79465;BME280;68932;47.410;8.232;2023-08-20T13:01:27;97171.85;;;32.41;39.03
79465;BME280;68932;47.410;8.232;2023-08-20T13:03:57;97172.70;;;32.45;39.06
79465;BME280;68932;47.410;8.232;2023-08-20T13:06:27;97166.60;;;32.51;39.21
79465;BME280;68932;47.410;8.232;2023-08-20T13:08:57;97168.21;;;32.56;38.67
79465;BME280;68932;47.410;8.232;2023-08-20T13:11:26;97158.39;;;32.60;38.79